TSC816 EGCC-EGKK
Flight info
| Callsign | TSC816 |
|---|---|
| Flight time | 0h 36m |
| Altitude | 19000 |
| Route | LISTO L612 HON N859 KIDLI |
| Aircraft | A321/M-SDE3FGHIRWY/LB1 |
Departure
| Time | 2026-05-06 01:46 |
|---|---|
| Airport | Manchester Airport (EGCC) |
Arrival
| Time | 2026-05-06 02:23 |
|---|---|
| Airport | London Gatwick Airport (EGKK) |
| Time | Latitude | Longitude | Altitude | Speed | Heading |
|---|---|---|---|---|---|
| 2026-05-06 00:59 | 53.36200 | -2.27884 | 255 ft | 0 kts | 42° |
| 2026-05-06 01:37 | 53.36195 | -2.27891 | 255 ft | 3 kts | 43° |
| 2026-05-06 01:37 | 53.36180 | -2.27919 | 255 ft | 3 kts | 56° |
| 2026-05-06 01:37 | 53.36169 | -2.27951 | 255 ft | 3 kts | 78° |
| 2026-05-06 01:38 | 53.36169 | -2.27985 | 255 ft | 3 kts | 121° |
| 2026-05-06 01:38 | 53.36177 | -2.28001 | 255 ft | 1 kts | 141° |
| 2026-05-06 01:38 | 53.36178 | -2.28002 | 255 ft | 0 kts | 141° |
| 2026-05-06 01:40 | 53.36162 | -2.27981 | 255 ft | 7 kts | 141° |
| 2026-05-06 01:40 | 53.36116 | -2.27920 | 255 ft | 8 kts | 141° |
| 2026-05-06 01:41 | 53.36071 | -2.27861 | 255 ft | 8 kts | 142° |
| 2026-05-06 01:41 | 53.36021 | -2.27797 | 255 ft | 9 kts | 142° |
| 2026-05-06 01:41 | 53.35966 | -2.27737 | 255 ft | 10 kts | 158° |
| 2026-05-06 01:41 | 53.35892 | -2.27727 | 255 ft | 11 kts | 181° |
| 2026-05-06 01:42 | 53.35806 | -2.27738 | 251 ft | 14 kts | 185° |
| 2026-05-06 01:42 | 53.35692 | -2.27757 | 245 ft | 19 kts | 186° |
| 2026-05-06 01:42 | 53.35551 | -2.27791 | 238 ft | 22 kts | 200° |
| 2026-05-06 01:42 | 53.35440 | -2.27947 | 238 ft | 22 kts | 225° |
| 2026-05-06 01:43 | 53.35331 | -2.28127 | 240 ft | 22 kts | 224° |
| 2026-05-06 01:43 | 53.35218 | -2.28324 | 232 ft | 24 kts | 231° |
| 2026-05-06 01:43 | 53.35110 | -2.28553 | 228 ft | 24 kts | 231° |
| 2026-05-06 01:43 | 53.35022 | -2.28726 | 229 ft | 20 kts | 225° |
| 2026-05-06 01:44 | 53.34925 | -2.28895 | 226 ft | 21 kts | 227° |
| 2026-05-06 01:44 | 53.34819 | -2.29087 | 225 ft | 24 kts | 227° |
| 2026-05-06 01:44 | 53.34725 | -2.29281 | 221 ft | 22 kts | 226° |
| 2026-05-06 01:44 | 53.34596 | -2.29341 | 213 ft | 16 kts | 167° |
| 2026-05-06 01:45 | 53.34535 | -2.29243 | 214 ft | 10 kts | 96° |
| 2026-05-06 01:45 | 53.34552 | -2.29192 | 214 ft | 0 kts | 49° |
| 2026-05-06 01:45 | 53.34559 | -2.29179 | 214 ft | 8 kts | 49° |
| 2026-05-06 01:45 | 53.34754 | -2.28778 | 224 ft | 82 kts | 52° |
| 2026-05-06 01:46 | 53.35251 | -2.27750 | 239 ft | 142 kts | 50° |
| 2026-05-06 01:46 | 53.35955 | -2.26330 | 573 ft | 162 kts | 50° |
| 2026-05-06 01:46 | 53.36654 | -2.24917 | 1355 ft | 158 kts | 51° |
| 2026-05-06 01:46 | 53.37345 | -2.23446 | 1913 ft | 165 kts | 60° |
| 2026-05-06 01:47 | 53.37460 | -2.21537 | 2348 ft | 177 kts | 110° |
| 2026-05-06 01:47 | 53.36582 | -2.20059 | 2888 ft | 189 kts | 148° |
| 2026-05-06 01:47 | 53.35319 | -2.19072 | 3206 ft | 213 kts | 152° |
| 2026-05-06 01:47 | 53.33877 | -2.18037 | 3532 ft | 239 kts | 157° |
| 2026-05-06 01:48 | 53.32181 | -2.17324 | 3958 ft | 266 kts | 173° |
| 2026-05-06 01:48 | 53.30287 | -2.17441 | 4712 ft | 276 kts | 183° |
| 2026-05-06 01:48 | 53.28364 | -2.17698 | 5621 ft | 279 kts | 183° |
| 2026-05-06 01:48 | 53.26430 | -2.17973 | 6502 ft | 281 kts | 185° |
| 2026-05-06 01:49 | 53.24469 | -2.18283 | 7382 ft | 285 kts | 185° |
| 2026-05-06 01:49 | 53.22478 | -2.18607 | 8104 ft | 294 kts | 185° |
| 2026-05-06 01:49 | 53.20390 | -2.18943 | 8711 ft | 305 kts | 185° |
| 2026-05-06 01:49 | 53.18260 | -2.19282 | 9491 ft | 310 kts | 185° |
| 2026-05-06 01:50 | 53.16142 | -2.19611 | 10267 ft | 314 kts | 185° |
| 2026-05-06 01:50 | 53.13908 | -2.19410 | 11085 ft | 318 kts | 168° |
| 2026-05-06 01:50 | 53.11838 | -2.18213 | 11859 ft | 321 kts | 158° |
| 2026-05-06 01:50 | 53.09765 | -2.16762 | 12624 ft | 325 kts | 158° |
| 2026-05-06 01:51 | 53.07670 | -2.15302 | 13369 ft | 328 kts | 159° |
| 2026-05-06 01:51 | 53.05552 | -2.13833 | 14118 ft | 331 kts | 159° |
| 2026-05-06 01:51 | 53.03416 | -2.12359 | 14863 ft | 334 kts | 159° |
| 2026-05-06 01:51 | 53.01262 | -2.10876 | 15590 ft | 336 kts | 159° |
| 2026-05-06 01:52 | 52.99088 | -2.09377 | 16294 ft | 339 kts | 159° |
| 2026-05-06 01:52 | 52.96946 | -2.07897 | 16956 ft | 342 kts | 159° |
| 2026-05-06 01:52 | 52.95487 | -2.06889 | 17418 ft | 344 kts | 159° |
| 2026-05-06 01:52 | 52.93246 | -2.05344 | 17872 ft | 354 kts | 160° |
| 2026-05-06 01:53 | 52.90935 | -2.03755 | 18281 ft | 364 kts | 159° |
| 2026-05-06 01:53 | 52.88558 | -2.02127 | 18671 ft | 376 kts | 160° |
| 2026-05-06 01:53 | 52.85261 | -1.99874 | 18865 ft | 397 kts | 159° |
| 2026-05-06 01:53 | 52.82689 | -1.98117 | 19021 ft | 403 kts | 159° |
| 2026-05-06 01:54 | 52.80919 | -1.96909 | 19052 ft | 414 kts | 159° |
| 2026-05-06 01:54 | 52.78217 | -1.95069 | 19053 ft | 423 kts | 159° |
| 2026-05-06 01:54 | 52.75484 | -1.93207 | 19060 ft | 425 kts | 159° |
| 2026-05-06 01:54 | 52.72783 | -1.91363 | 19056 ft | 426 kts | 159° |
| 2026-05-06 01:55 | 52.70047 | -1.89495 | 19048 ft | 426 kts | 159° |
| 2026-05-06 01:55 | 52.67306 | -1.87628 | 19061 ft | 426 kts | 159° |
| 2026-05-06 01:55 | 52.64570 | -1.85774 | 19050 ft | 426 kts | 159° |
| 2026-05-06 01:55 | 52.61829 | -1.83925 | 19054 ft | 426 kts | 159° |
| 2026-05-06 01:56 | 52.59083 | -1.82077 | 19054 ft | 426 kts | 159° |
| 2026-05-06 01:56 | 52.56340 | -1.80233 | 19061 ft | 426 kts | 159° |
| 2026-05-06 01:56 | 52.53597 | -1.78387 | 19056 ft | 426 kts | 159° |
| 2026-05-06 01:56 | 52.50858 | -1.76544 | 19059 ft | 426 kts | 159° |
| 2026-05-06 01:57 | 52.48113 | -1.74700 | 19051 ft | 426 kts | 159° |
| 2026-05-06 01:57 | 52.45371 | -1.72860 | 19059 ft | 425 kts | 159° |
| 2026-05-06 01:57 | 52.42623 | -1.71022 | 19055 ft | 425 kts | 159° |
| 2026-05-06 01:57 | 52.39919 | -1.69218 | 19050 ft | 425 kts | 159° |
| 2026-05-06 01:58 | 52.37180 | -1.67390 | 19047 ft | 425 kts | 159° |
| 2026-05-06 01:58 | 52.34422 | -1.65610 | 19048 ft | 425 kts | 161° |
| 2026-05-06 01:58 | 52.31633 | -1.64010 | 19057 ft | 425 kts | 163° |
| 2026-05-06 01:58 | 52.28814 | -1.62539 | 19046 ft | 425 kts | 164° |
| 2026-05-06 01:59 | 52.25987 | -1.61134 | 19053 ft | 424 kts | 165° |
| 2026-05-06 01:59 | 52.23156 | -1.59744 | 19050 ft | 424 kts | 165° |
| 2026-05-06 01:59 | 52.20364 | -1.58362 | 19048 ft | 424 kts | 165° |
| 2026-05-06 01:59 | 52.17541 | -1.56939 | 19045 ft | 424 kts | 164° |
| 2026-05-06 02:00 | 52.14723 | -1.55489 | 19039 ft | 424 kts | 164° |
| 2026-05-06 02:00 | 52.11918 | -1.54022 | 19039 ft | 424 kts | 163° |
| 2026-05-06 02:00 | 52.09103 | -1.52549 | 19032 ft | 424 kts | 163° |
| 2026-05-06 02:00 | 52.06286 | -1.51080 | 19030 ft | 425 kts | 164° |
| 2026-05-06 02:01 | 52.03469 | -1.49617 | 19031 ft | 425 kts | 164° |
| 2026-05-06 02:01 | 52.00688 | -1.48179 | 19027 ft | 425 kts | 164° |
| 2026-05-06 02:01 | 51.97869 | -1.46731 | 19029 ft | 425 kts | 164° |
| 2026-05-06 02:01 | 51.95080 | -1.45300 | 19003 ft | 411 kts | 164° |
| 2026-05-06 02:02 | 51.92391 | -1.43918 | 19007 ft | 403 kts | 164° |
| 2026-05-06 02:02 | 51.89718 | -1.42546 | 19008 ft | 402 kts | 164° |
| 2026-05-06 02:02 | 51.87057 | -1.41185 | 19007 ft | 401 kts | 164° |
| 2026-05-06 02:02 | 51.84392 | -1.39825 | 19005 ft | 401 kts | 164° |
| 2026-05-06 02:03 | 51.81730 | -1.38464 | 19008 ft | 402 kts | 164° |
| 2026-05-06 02:03 | 51.79071 | -1.37102 | 19008 ft | 402 kts | 163° |
| 2026-05-06 02:03 | 51.76487 | -1.35332 | 19008 ft | 403 kts | 153° |
| 2026-05-06 02:03 | 51.74127 | -1.32982 | 19008 ft | 404 kts | 148° |
| 2026-05-06 02:04 | 51.71769 | -1.30504 | 19007 ft | 404 kts | 148° |
| 2026-05-06 02:04 | 51.69411 | -1.28042 | 19004 ft | 404 kts | 148° |
| 2026-05-06 02:04 | 51.67046 | -1.25579 | 19003 ft | 404 kts | 148° |
| 2026-05-06 02:04 | 51.64680 | -1.23120 | 19004 ft | 404 kts | 148° |
| 2026-05-06 02:05 | 51.62317 | -1.20671 | 19003 ft | 404 kts | 148° |
| 2026-05-06 02:05 | 51.59948 | -1.18220 | 19001 ft | 404 kts | 148° |
| 2026-05-06 02:05 | 51.57582 | -1.15774 | 19004 ft | 405 kts | 148° |
| 2026-05-06 02:05 | 51.55211 | -1.13325 | 19003 ft | 405 kts | 148° |
| 2026-05-06 02:06 | 51.52842 | -1.10881 | 19006 ft | 405 kts | 148° |
| 2026-05-06 02:06 | 51.50473 | -1.08437 | 19005 ft | 405 kts | 148° |
| 2026-05-06 02:06 | 51.48101 | -1.05990 | 19005 ft | 405 kts | 148° |
| 2026-05-06 02:06 | 51.45768 | -1.03584 | 19002 ft | 405 kts | 148° |
| 2026-05-06 02:07 | 51.43399 | -1.01146 | 19001 ft | 405 kts | 148° |
| 2026-05-06 02:07 | 51.41037 | -0.98721 | 19002 ft | 405 kts | 148° |
| 2026-05-06 02:07 | 51.38662 | -0.96280 | 18997 ft | 404 kts | 148° |
| 2026-05-06 02:07 | 51.36292 | -0.93844 | 19000 ft | 405 kts | 148° |
| 2026-05-06 02:08 | 51.33920 | -0.91416 | 18995 ft | 405 kts | 148° |
| 2026-05-06 02:08 | 51.31544 | -0.88995 | 18992 ft | 405 kts | 148° |
| 2026-05-06 02:08 | 51.29168 | -0.86577 | 18989 ft | 405 kts | 148° |
| 2026-05-06 02:08 | 51.26794 | -0.84165 | 18986 ft | 405 kts | 148° |
| 2026-05-06 02:09 | 51.24419 | -0.81752 | 18828 ft | 406 kts | 148° |
| 2026-05-06 02:09 | 51.22019 | -0.79312 | 17953 ft | 410 kts | 148° |
| 2026-05-06 02:09 | 51.19662 | -0.76915 | 17796 ft | 393 kts | 148° |
| 2026-05-06 02:09 | 51.17399 | -0.74614 | 17657 ft | 378 kts | 148° |
| 2026-05-06 02:10 | 51.15252 | -0.72435 | 17537 ft | 364 kts | 148° |
| 2026-05-06 02:10 | 51.13156 | -0.70313 | 17425 ft | 350 kts | 148° |
| 2026-05-06 02:10 | 51.11135 | -0.68272 | 17278 ft | 338 kts | 148° |
| 2026-05-06 02:10 | 51.09182 | -0.66301 | 17119 ft | 327 kts | 148° |
| 2026-05-06 02:11 | 51.07274 | -0.64374 | 16797 ft | 323 kts | 146° |
| 2026-05-06 02:11 | 51.06483 | -0.63446 | 16631 ft | 321 kts | 139° |
| 2026-05-06 02:11 | 51.05225 | -0.61408 | 16051 ft | 317 kts | 127° |
| 2026-05-06 02:11 | 51.04106 | -0.58426 | 15289 ft | 313 kts | 115° |
| 2026-05-06 02:12 | 51.03151 | -0.55323 | 14463 ft | 311 kts | 115° |
| 2026-05-06 02:12 | 51.02198 | -0.52255 | 13682 ft | 309 kts | 116° |
| 2026-05-06 02:12 | 51.01263 | -0.49257 | 12925 ft | 305 kts | 115° |
| 2026-05-06 02:12 | 51.00322 | -0.46256 | 12156 ft | 302 kts | 115° |
| 2026-05-06 02:13 | 50.99387 | -0.43285 | 11381 ft | 299 kts | 115° |
| 2026-05-06 02:13 | 50.98462 | -0.40350 | 10619 ft | 295 kts | 115° |
| 2026-05-06 02:13 | 50.97552 | -0.37463 | 9868 ft | 291 kts | 115° |
| 2026-05-06 02:13 | 50.96656 | -0.34632 | 9344 ft | 279 kts | 115° |
| 2026-05-06 02:14 | 50.95821 | -0.31996 | 9102 ft | 260 kts | 115° |
| 2026-05-06 02:14 | 50.95063 | -0.29445 | 8801 ft | 252 kts | 105° |
| 2026-05-06 02:14 | 50.94960 | -0.26758 | 8444 ft | 243 kts | 74° |
| 2026-05-06 02:14 | 50.95727 | -0.24440 | 8049 ft | 238 kts | 43° |
| 2026-05-06 02:15 | 50.97128 | -0.23143 | 7660 ft | 235 kts | 12° |
| 2026-05-06 02:15 | 50.98717 | -0.23227 | 7265 ft | 235 kts | 341° |
| 2026-05-06 02:15 | 51.00058 | -0.24667 | 6865 ft | 236 kts | 310° |
| 2026-05-06 02:15 | 51.00984 | -0.26844 | 6417 ft | 239 kts | 302° |
| 2026-05-06 02:16 | 51.01819 | -0.29125 | 5963 ft | 238 kts | 301° |
| 2026-05-06 02:16 | 51.02634 | -0.31405 | 5513 ft | 237 kts | 301° |
| 2026-05-06 02:16 | 51.03439 | -0.33686 | 5066 ft | 236 kts | 301° |
| 2026-05-06 02:16 | 51.04234 | -0.35971 | 4630 ft | 235 kts | 301° |
| 2026-05-06 02:17 | 51.05017 | -0.38250 | 4291 ft | 234 kts | 301° |
| 2026-05-06 02:17 | 51.05773 | -0.40485 | 4136 ft | 227 kts | 301° |
| 2026-05-06 02:17 | 51.06504 | -0.42666 | 3912 ft | 220 kts | 301° |
| 2026-05-06 02:17 | 51.07199 | -0.44762 | 3776 ft | 209 kts | 301° |
| 2026-05-06 02:18 | 51.07964 | -0.46668 | 3514 ft | 201 kts | 322° |
| 2026-05-06 02:18 | 51.09174 | -0.47554 | 3216 ft | 190 kts | 360° |
| 2026-05-06 02:18 | 51.10395 | -0.47023 | 3036 ft | 184 kts | 37° |
| 2026-05-06 02:18 | 51.11133 | -0.45402 | 3011 ft | 184 kts | 71° |
| 2026-05-06 02:19 | 51.11417 | -0.43467 | 2977 ft | 178 kts | 75° |
| 2026-05-06 02:19 | 51.11676 | -0.41583 | 2793 ft | 175 kts | 75° |
| 2026-05-06 02:19 | 51.11937 | -0.39705 | 2584 ft | 173 kts | 75° |
| 2026-05-06 02:19 | 51.12200 | -0.37827 | 2366 ft | 174 kts | 75° |
| 2026-05-06 02:20 | 51.12712 | -0.34180 | 1930 ft | 163 kts | 75° |
| 2026-05-06 02:20 | 51.12945 | -0.32438 | 1728 ft | 156 kts | 75° |
| 2026-05-06 02:20 | 51.13179 | -0.30807 | 1551 ft | 148 kts | 73° |
| 2026-05-06 02:21 | 51.13405 | -0.29205 | 1344 ft | 149 kts | 75° |
| 2026-05-06 02:21 | 51.13625 | -0.27625 | 1120 ft | 147 kts | 75° |
| 2026-05-06 02:21 | 51.13845 | -0.26030 | 906 ft | 147 kts | 75° |
| 2026-05-06 02:21 | 51.14063 | -0.24460 | 701 ft | 145 kts | 75° |
| 2026-05-06 02:22 | 51.14281 | -0.22881 | 506 ft | 146 kts | 75° |
| 2026-05-06 02:22 | 51.14500 | -0.21310 | 331 ft | 146 kts | 75° |
| 2026-05-06 02:22 | 51.14717 | -0.19740 | 214 ft | 139 kts | 76° |
| 2026-05-06 02:22 | 51.14900 | -0.18423 | 214 ft | 94 kts | 77° |
| 2026-05-06 02:23 | 51.15002 | -0.17683 | 207 ft | 44 kts | 77° |
| 2026-05-06 02:23 | 51.15040 | -0.17439 | 210 ft | 13 kts | 70° |
| 2026-05-06 02:23 | 51.15085 | -0.17290 | 207 ft | 16 kts | 55° |
| 2026-05-06 02:23 | 51.15145 | -0.17217 | 204 ft | 10 kts | 355° |
| 2026-05-06 02:24 | 51.15201 | -0.17267 | 204 ft | 9 kts | 326° |
| 2026-05-06 02:24 | 51.15254 | -0.17324 | 209 ft | 9 kts | 327° |
| 2026-05-06 02:24 | 51.15312 | -0.17360 | 209 ft | 9 kts | 350° |
| 2026-05-06 02:24 | 51.15375 | -0.17379 | 213 ft | 9 kts | 348° |
| 2026-05-06 02:25 | 51.15436 | -0.17399 | 211 ft | 9 kts | 347° |
| 2026-05-06 02:25 | 51.15500 | -0.17422 | 204 ft | 10 kts | 347° |
| 2026-05-06 02:25 | 51.15568 | -0.17422 | 204 ft | 10 kts | 26° |
| 2026-05-06 02:25 | 51.15599 | -0.17330 | 207 ft | 10 kts | 76° |
| 2026-05-06 02:26 | 51.15616 | -0.17226 | 213 ft | 10 kts | 76° |
| 2026-05-06 02:26 | 51.15632 | -0.17122 | 215 ft | 10 kts | 75° |
| 2026-05-06 02:26 | 51.15642 | -0.17047 | 204 ft | 3 kts | 77° |
| 2026-05-06 02:26 | 51.15635 | -0.17022 | 205 ft | 3 kts | 140° |
| 2026-05-06 02:27 | 51.15619 | -0.17017 | 213 ft | 3 kts | 168° |
| 2026-05-06 02:27 | 51.15597 | -0.17009 | 207 ft | 3 kts | 167° |
| 2026-05-06 02:27 | 51.15578 | -0.17002 | 204 ft | 2 kts | 167° |
| 2026-05-06 02:27 | 51.15567 | -0.16999 | 204 ft | 0 kts | 167° |